Time;durP1;ratioP1;P1;durP2;ratioP2;P2;SDS_P1;SDS_P2;PMS_P1;PMS_P2;Temp;Humidity;BMP_temperature;BMP_pressure;BME280_temperature;BME280_humidity;BME280_pressure;Samples;Min_cycle;Max_cycle;Signal;HPM_P1;HPM_P2
2021/10/26 00:00:55;;;;;;;;;;;;;;;21.24;56.25;101071.97;2099725;28;783;-59
2021/10/26 00:01:56;;;;;;;;;;;;;;;21.27;56.51;101066.47;2099746;28;1141;-59
2021/10/26 00:02:56;;;;;;;;;;;;;;;21.28;56.51;101066.44;2099747;28;1914;-58
2021/10/26 00:03:56;;;;;;;;;;;;;;;21.26;56.16;101062.91;2099379;28;961;-59
2021/10/26 00:04:56;;;;;;;;;;;;;;;21.24;55.95;101061.19;2099730;28;775;-58
2021/10/26 00:05:56;;;;;;;;;;;;;;;21.24;55.34;101058.50;2099695;28;863;-58
2021/10/26 00:06:57;;;;;;;;;;;;;;;21.23;56.30;101062.13;2099726;28;965;-58
2021/10/26 00:07:57;;;;;;;;;;;;;;;21.23;56.07;101063.00;2099725;28;764;-59
2021/10/26 00:08:57;;;;;;;;;;;;;;;21.23;55.30;101060.31;2099661;28;977;-59
2021/10/26 00:09:57;;;;;;;;;;;;;;;21.23;55.40;101060.31;2099622;28;985;-59
2021/10/26 00:10:57;;;;;;;;;;;;;;;21.22;55.66;101054.97;2099723;28;997;-59
2021/10/26 00:11:58;;;;;;;;;;;;;;;21.22;56.36;101061.25;2099594;28;1043;-58
2021/10/26 00:12:58;;;;;;;;;;;;;;;21.22;56.21;101053.16;2099712;28;791;-58
2021/10/26 00:13:59;;;;;;;;;;;;;;;21.23;55.79;101054.94;2099677;28;977;-58
2021/10/26 00:14:59;;;;;;;;;;;;;;;21.20;56.38;101057.72;2099531;28;923;-58
2021/10/26 00:15:59;;;;;;;;;;;;;;;21.22;55.77;101058.56;2099693;28;818;-59
2021/10/26 00:17:00;;;;;;;;;;;;;;;21.23;55.27;101054.03;2099711;28;929;-58
2021/10/26 00:18:00;;;;;;;;;;;;;;;21.25;55.87;101055.75;2099673;28;815;-58
2021/10/26 00:19:00;;;;;;;;;;;;;;;;;;2099698;28;976;-58
2021/10/26 00:20:01;;;;;;;;;;;;;;;;;;2099595;28;1044;-59
2021/10/26 00:21:01;;;;;;;;;;;;;;;21.19;56.18;101050.56;2099670;28;1133;-59
2021/10/26 00:22:01;;;;;;;;;;;;;;;21.22;56.33;101054.97;2099676;28;1036;-58
2021/10/26 00:23:03;;;;;;;;;;;;;;;21.22;55.73;101052.25;2099466;28;1976;-58
2021/10/26 00:24:03;;;;;;;;;;;;;;;21.22;55.36;101054.97;2099607;28;830;-59
2021/10/26 00:25:03;;;;;;;;;;;;;;;;;;2099631;28;1186;-58
2021/10/26 00:26:06;;;;;;;;;;;;;;;;;;2099625;28;842;-59
2021/10/26 00:27:06;;;;;;;;;;;;;;;;;;2099632;28;953;-59
2021/10/26 00:28:06;;;;;;;;;;;;;;;21.18;56.37;101063.19;2099632;28;886;-58
2021/10/26 00:29:07;;;;;;;;;;;;;;;;;;2099615;28;985;-58
2021/10/26 00:30:07;;;;;;;;;;;;;;;;;;2099513;28;888;-58
2021/10/26 00:31:07;;;;;;;;;;;;;;;21.17;55.74;101041.66;2099658;28;854;-59
2021/10/26 00:32:07;;;;;;;;;;;;;;;21.22;55.54;101049.56;2099607;28;965;-59
2021/10/26 00:33:07;;;;;;;;;;;;;;;21.19;55.85;101047.88;2099633;28;803;-59
2021/10/26 00:34:08;;;;;;;;;;;;;;;21.18;55.92;101048.81;2099532;28;968;-59
2021/10/26 00:35:08;;;;;;;;;;;;;;;21.18;55.47;101048.81;2099582;28;890;-59
2021/10/26 00:36:08;;;;;;;;;;;;;;;21.22;55.31;101044.19;2099610;28;1414;-59
2021/10/26 00:37:09;;;;;;;;;;;;;;;21.21;55.96;101050.50;2098535;28;1204;-58
2021/10/26 00:38:09;;;;;;;;;;;;;;;21.19;55.39;101055.97;2091300;28;799;-58
2021/10/26 00:39:09;;;;;;;;;;;;;;;21.18;55.77;101054.19;2091270;28;977;-58
2021/10/26 00:40:10;;;;;;;;;;;;;;;21.23;55.76;101051.34;2091258;28;895;-58
2021/10/26 00:41:10;;;;;;;;;;;;;;;21.18;55.91;101052.41;2091317;28;1160;-58
2021/10/26 00:42:11;;;;;;;;;;;;;;;21.17;55.71;101050.63;2092477;28;858;-58
2021/10/26 00:43:11;;;;;;;;;;;;;;;21.21;56.07;101053.19;2092862;28;1886;-58
2021/10/26 00:44:12;;;;;;;;;;;;;;;21.23;56.30;101051.34;2092901;28;977;-59
2021/10/26 00:45:12;;;;;;;;;;;;;;;;;;2092962;28;814;-58
2021/10/26 00:46:12;;;;;;;;;;;;;;;21.19;55.63;101047.88;2092790;28;941;-58
2021/10/26 00:47:12;;;;;;;;;;;;;;;21.18;55.64;101048.81;2092952;28;1036;-59
2021/10/26 00:48:12;;;;;;;;;;;;;;;21.18;55.79;101054.19;2092750;28;851;-58
2021/10/26 00:49:13;;;;;;;;;;;;;;;21.18;55.76;101057.78;2092877;28;791;-58
2021/10/26 00:50:13;;;;;;;;;;;;;;;21.17;55.94;101064.09;2092918;28;906;-59
2021/10/26 00:51:14;;;;;;;;;;;;;;;21.17;55.72;101058.72;2092738;28;949;-58
2021/10/26 00:52:14;;;;;;;;;;;;;;;21.17;56.41;101058.72;2092888;28;791;-58
2021/10/26 00:53:15;;;;;;;;;;;;;;;21.16;55.94;101062.34;2092924;28;877;-58
2021/10/26 00:54:15;;;;;;;;;;;;;;;21.17;55.73;101064.09;2092737;28;808;-58
2021/10/26 00:55:16;;;;;;;;;;;;;;;21.17;56.31;101055.13;2092908;28;1036;-58
2021/10/26 00:56:16;;;;;;;;;;;;;;;21.16;56.12;101056.06;2092640;28;1254;-58
2021/10/26 00:57:20;;;;;;;;;;;;;;;21.17;55.61;101056.03;2092800;28;747;-58
2021/10/26 00:58:21;;;;;;;;;;;;;;;21.15;55.45;101055.19;2092829;28;874;-58
2021/10/26 00:59:21;;;;;;;;;;;;;;;21.15;55.67;101057.88;2092792;28;842;-58
2021/10/26 01:00:22;;;;;;;;;;;;;;;21.16;55.58;101048.88;2092736;28;819;-59
2021/10/26 01:01:22;;;;;;;;;;;;;;;21.15;56.03;101052.50;2092798;28;862;-58
2021/10/26 01:02:22;;;;;;;;;;;;;;;21.16;56.17;101042.59;2092758;28;1032;-58
2021/10/26 01:03:22;;;;;;;;;;;;;;;21.17;56.36;101041.66;2092795;28;1910;-58
2021/10/26 01:04:22;;;;;;;;;;;;;;;21.16;55.81;101043.47;2092722;28;1001;-58
2021/10/26 01:05:23;;;;;;;;;;;;;;;21.18;55.96;101040.72;2092818;28;783;-58
2021/10/26 01:06:23;;;;;;;;;;;;;;;21.17;55.85;101037.16;2092721;28;946;-59
2021/10/26 01:07:23;;;;;;;;;;;;;;;21.17;55.67;101044.34;2092809;28;886;-58
2021/10/26 01:08:24;;;;;;;;;;;;;;;21.14;56.29;101041.75;2092822;28;1159;-58
2021/10/26 01:09:24;;;;;;;;;;;;;;;21.14;55.92;101042.66;2092630;28;906;-59
2021/10/26 01:10:24;;;;;;;;;;;;;;;21.16;55.58;101042.59;2092752;28;1123;-58
2021/10/26 01:11:24;;;;;;;;;;;;;;;21.14;55.83;101036.38;2092674;28;1129;-58
2021/10/26 01:12:24;;;;;;;;;;;;;;;21.16;55.56;101038.09;2092408;28;1048;-58
2021/10/26 01:13:25;;;;;;;;;;;;;;;21.12;55.53;101031.03;2092696;28;787;-58
2021/10/26 01:14:25;;;;;;;;;;;;;;;21.13;56.45;101035.50;2092740;28;897;-58
2021/10/26 01:15:26;;;;;;;;;;;;;;;21.13;55.40;101032.81;2092734;28;803;-58
2021/10/26 01:16:26;;;;;;;;;;;;;;;21.17;55.96;101036.28;2092700;28;839;-58
2021/10/26 01:17:27;;;;;;;;;;;;;;;21.16;55.30;101024.63;2092613;28;835;-59
2021/10/26 01:18:27;;;;;;;;;;;;;;;21.14;55.58;101023.78;2092665;28;1093;-59
2021/10/26 01:19:32;;;;;;;;;;;;;;;21.12;56.14;101025.66;2092667;28;855;-59
2021/10/26 01:20:32;;;;;;;;;;;;;;;21.13;55.44;101021.13;2092653;28;969;-58
2021/10/26 01:21:32;;;;;;;;;;;;;;;21.14;55.97;101023.78;2092739;28;823;-58
2021/10/26 01:22:39;;;;;;;;;;;;;;;21.15;56.04;101021.97;2092576;28;1894;-58
2021/10/26 01:23:39;;;;;;;;;;;;;;;21.14;56.35;101020.19;2092451;28;822;-60
2021/10/26 01:24:39;;;;;;;;;;;;;;;21.16;56.27;101024.63;2092531;28;969;-58
2021/10/26 01:25:40;;;;;;;;;;;;;;;21.14;55.88;101022.91;2092313;28;795;-58
2021/10/26 01:26:40;;;;;;;;;;;;;;;21.12;55.90;101022.97;2092716;28;799;-58
2021/10/26 01:27:42;;;;;;;;;;;;;;;21.13;55.63;101024.72;2092544;28;989;-58
2021/10/26 01:28:42;;;;;;;;;;;;;;;21.13;55.75;101024.72;2092689;28;1005;-58
2021/10/26 01:29:42;;;;;;;;;;;;;;;21.13;56.03;101021.13;2092566;28;775;-58
2021/10/26 01:30:43;;;;;;;;;;;;;;;21.13;55.42;101027.41;2092484;28;1007;-58
2021/10/26 01:31:44;;;;;;;;;;;;;;;21.13;56.27;101015.75;2092672;28;830;-58
2021/10/26 01:32:44;;;;;;;;;;;;;;;21.13;55.90;101019.34;2092616;28;877;-58
2021/10/26 01:33:44;;;;;;;;;;;;;;;21.13;55.48;101013.97;2092395;28;997;-58
2021/10/26 01:34:44;;;;;;;;;;;;;;;21.12;55.52;101017.56;2092517;28;1037;-58
2021/10/26 01:35:45;;;;;;;;;;;;;;;21.13;56.01;101013.97;2092523;28;768;-58
2021/10/26 01:36:47;;;;;;;;;;;;;;;21.12;55.51;101014.88;2092212;28;839;-58
2021/10/26 01:37:47;;;;;;;;;;;;;;;21.11;56.47;101015.81;2092508;28;1158;-59
2021/10/26 01:38:48;;;;;;;;;;;;;;;21.13;55.75;101015.75;2092540;28;788;-59
2021/10/26 01:39:48;;;;;;;;;;;;;;;21.13;55.84;101013.97;2092251;28;965;-58
2021/10/26 01:40:48;;;;;;;;;;;;;;;21.11;55.85;101013.13;2092515;28;799;-58
2021/10/26 01:41:49;;;;;;;;;;;;;;;21.11;55.54;101013.13;2092450;28;1016;-58
2021/10/26 01:42:49;;;;;;;;;;;;;;;21.12;55.38;101012.19;2092411;28;1890;-58
2021/10/26 01:43:53;;;;;;;;;;;;;;;21.11;56.77;101014.91;2092465;28;767;-58
2021/10/26 01:44:53;;;;;;;;;;;;;;;21.12;55.67;101017.56;2092203;28;803;-58
2021/10/26 01:45:54;;;;;;;;;;;;;;;21.12;55.44;101017.56;2092367;28;840;-58
2021/10/26 01:46:54;;;;;;;;;;;;;;;21.16;55.81;101018.34;2092496;28;909;-58
2021/10/26 01:47:54;;;;;;;;;;;;;;;21.12;55.78;101017.56;2092210;28;834;-58
2021/10/26 01:48:55;;;;;;;;;;;;;;;21.13;55.76;101019.34;2092361;28;981;-58
2021/10/26 01:49:55;;;;;;;;;;;;;;;21.12;55.67;101022.97;2092433;28;867;-58
2021/10/26 01:50:57;;;;;;;;;;;;;;;21.13;55.95;101013.06;2092428;28;1043;-58
2021/10/26 01:51:58;;;;;;;;;;;;;;;21.13;55.60;101022.03;2092390;28;897;-58
2021/10/26 01:52:59;;;;;;;;;;;;;;;21.11;56.08;101014.91;2092276;28;815;-58
2021/10/26 01:53:59;;;;;;;;;;;;;;;21.11;56.27;101015.81;2091573;28;866;-59
2021/10/26 01:54:59;;;;;;;;;;;;;;;21.10;56.58;101011.34;2092439;28;811;-58
2021/10/26 01:55:59;;;;;;;;;;;;;;;21.11;55.70;101010.44;2092036;28;1427;-58
2021/10/26 01:56:59;;;;;;;;;;;;;;;21.11;56.64;101021.19;2092345;28;759;-59
2021/10/26 01:58:00;;;;;;;;;;;;;;;21.14;55.68;101012.13;2092406;28;747;-59
2021/10/26 01:59:00;;;;;;;;;;;;;;;21.11;56.19;101017.63;2092146;28;863;-58
2021/10/26 02:00:04;;;;;;;;;;;;;;;21.11;56.15;101015.81;2092323;28;1052;-58
2021/10/26 02:01:05;;;;;;;;;;;;;;;21.10;55.70;101014.06;2092385;28;914;-59
2021/10/26 02:02:05;;;;;;;;;;;;;;;21.09;55.72;101004.22;2092057;28;1013;-58
2021/10/26 02:03:05;;;;;;;;;;;;;;;21.10;56.14;101003.28;2092299;28;1906;-58
2021/10/26 02:04:06;;;;;;;;;;;;;;;21.11;55.75;101005.03;2092393;28;870;-58
2021/10/26 02:05:06;;;;;;;;;;;;;;;21.11;55.55;101005.03;2092171;28;851;-58
2021/10/26 02:06:06;;;;;;;;;;;;;;;21.09;56.07;101006.91;2092307;28;969;-58
2021/10/26 02:07:06;;;;;;;;;;;;;;;21.11;55.47;101004.13;2092318;28;901;-59
2021/10/26 02:08:06;;;;;;;;;;;;;;;21.10;55.70;100995.19;2092143;28;984;-59
2021/10/26 02:09:07;;;;;;;;;;;;;;;21.10;55.88;101003.28;2092370;28;1019;-58
2021/10/26 02:10:07;;;;;;;;;;;;;;;21.12;55.88;101005.91;2092173;28;837;-58
2021/10/26 02:11:08;;;;;;;;;;;;;;;21.11;55.77;101005.03;2092198;28;1207;-59
2021/10/26 02:12:08;;;;;;;;;;;;;;;21.11;55.47;101005.03;2092255;28;1030;-59
2021/10/26 02:13:08;;;;;;;;;;;;;;;21.08;56.54;101015.00;2092214;28;759;-59
2021/10/26 02:14:08;;;;;;;;;;;;;;;21.08;55.33;101010.53;2092212;28;889;-58
2021/10/26 02:15:09;;;;;;;;;;;;;;;21.11;55.34;101009.53;2092260;28;1207;-58
2021/10/26 02:16:09;;;;;;;;;;;;;;;21.10;55.54;101005.97;2092221;28;937;-58
2021/10/26 02:17:09;;;;;;;;;;;;;;;21.11;55.90;101005.03;2092260;28;823;-58
2021/10/26 02:18:10;;;;;;;;;;;;;;;21.11;55.69;101002.34;2092194;28;988;-59
2021/10/26 02:19:10;;;;;;;;;;;;;;;21.10;56.04;100995.19;2092236;28;1008;-58
2021/10/26 02:20:11;;;;;;;;;;;;;;;21.09;55.48;100998.81;2092121;28;786;-58
2021/10/26 02:21:11;;;;;;;;;;;;;;;21.10;56.12;100992.50;2092085;28;854;-58
2021/10/26 02:22:11;;;;;;;;;;;;;;;21.10;56.77;100991.59;2092197;28;977;-58
2021/10/26 02:23:12;;;;;;;;;;;;;;;21.12;56.27;100990.63;2092116;28;1952;-58
2021/10/26 02:24:12;;;;;;;;;;;;;;;21.13;56.20;100976.25;2092116;28;972;-58
2021/10/26 02:25:12;;;;;;;;;;;;;;;21.11;55.85;100993.38;2092215;28;966;-58
2021/10/26 02:26:12;;;;;;;;;;;;;;;21.10;55.93;100995.19;2091737;28;819;-58
2021/10/26 02:27:13;;;;;;;;;;;;;;;21.11;55.64;100998.75;2092218;28;849;-58
2021/10/26 02:28:13;;;;;;;;;;;;;;;21.10;55.58;100997.88;2092115;28;1036;-58
2021/10/26 02:29:13;;;;;;;;;;;;;;;21.09;55.69;100995.22;2092184;28;818;-58
2021/10/26 02:30:14;;;;;;;;;;;;;;;21.08;56.48;100993.47;2092123;28;890;-59
2021/10/26 02:31:14;;;;;;;;;;;;;;;21.10;55.34;101003.28;2092154;28;803;-58
2021/10/26 02:32:14;;;;;;;;;;;;;;;21.11;56.07;100994.25;2092109;28;1044;-58
2021/10/26 02:33:14;;;;;;;;;;;;;;;21.10;55.82;101003.28;2092085;28;922;-58
2021/10/26 02:34:14;;;;;;;;;;;;;;;21.12;55.95;100996.03;2092026;28;787;-58
2021/10/26 02:35:15;;;;;;;;;;;;;;;21.10;56.27;100999.69;2092125;28;1031;-58
2021/10/26 02:36:15;;;;;;;;;;;;;;;21.08;55.69;100988.97;2092086;28;858;-58
2021/10/26 02:37:15;;;;;;;;;;;;;;;21.10;56.60;100991.59;2093837;28;1478;-58
2021/10/26 02:38:16;;;;;;;;;;;;;;;21.06;55.81;100985.47;2100297;28;796;-58
2021/10/26 02:39:16;;;;;;;;;;;;;;;21.07;55.82;100992.59;2100033;28;779;-58
2021/10/26 02:40:16;;;;;;;;;;;;;;;21.09;55.26;100985.34;2100252;28;820;-58
2021/10/26 02:41:17;;;;;;;;;;;;;;;21.10;55.61;100981.72;2100329;28;843;-58
2021/10/26 02:42:17;;;;;;;;;;;;;;;21.09;55.83;100966.50;2100016;28;795;-58
2021/10/26 02:43:18;;;;;;;;;;;;;;;21.11;56.76;100974.50;2100241;28;2009;-58
2021/10/26 02:44:18;;;;;;;;;;;;;;;21.12;56.30;100971.78;2100304;28;1126;-58
2021/10/26 02:45:19;;;;;;;;;;;;;;;21.10;55.75;100975.44;2100252;28;1012;-58
2021/10/26 02:46:19;;;;;;;;;;;;;;;21.10;55.65;100972.75;2100340;28;834;-58
2021/10/26 02:47:19;;;;;;;;;;;;;;;21.10;56.42;100962.88;2100170;28;814;-58
2021/10/26 02:48:19;;;;;;;;;;;;;;;21.11;55.44;100963.75;2100179;28;965;-58
2021/10/26 02:49:19;;;;;;;;;;;;;;;21.08;56.18;100967.44;2100261;28;1032;-59
2021/10/26 02:50:20;;;;;;;;;;;;;;;21.11;55.38;100967.34;2100045;28;1045;-60
2021/10/26 02:51:20;;;;;;;;;;;;;;;21.10;55.91;100967.38;2100212;28;855;-58
2021/10/26 02:52:20;;;;;;;;;;;;;;;21.12;55.81;100962.81;2100074;28;846;-58
2021/10/26 02:53:20;;;;;;;;;;;;;;;21.08;55.83;100967.44;2100156;28;1254;-58
2021/10/26 02:54:20;;;;;;;;;;;;;;;21.11;55.93;100961.94;2100157;28;1009;-58
2021/10/26 02:55:20;;;;;;;;;;;;;;;21.11;55.97;100969.13;2100032;28;822;-58
2021/10/26 02:56:21;;;;;;;;;;;;;;;21.10;55.61;100968.25;2100029;28;1288;-58
2021/10/26 02:57:21;;;;;;;;;;;;;;;21.10;56.29;100975.44;2100088;28;740;-58
2021/10/26 02:58:21;;;;;;;;;;;;;;;21.10;55.83;100968.25;2099891;28;1008;-58
2021/10/26 02:59:24;;;;;;;;;;;;;;;21.10;55.99;100976.34;2100162;28;1099;-58
2021/10/26 03:00:24;;;;;;;;;;;;;;;21.09;56.44;100968.28;2100255;28;1132;-58
2021/10/26 03:01:24;;;;;;;;;;;;;;;21.10;56.53;100970.06;2099803;28;1002;-59
2021/10/26 03:02:25;;;;;;;;;;;;;;;21.09;56.60;100968.28;2099904;28;1247;-58
2021/10/26 03:03:25;;;;;;;;;;;;;;;21.11;55.80;100966.44;2099998;28;1910;-59
2021/10/26 03:04:25;;;;;;;;;;;;;;;21.09;55.65;100961.13;2100139;28;800;-58
2021/10/26 03:05:25;;;;;;;;;;;;;;;21.12;55.40;100968.19;2100123;28;934;-58
2021/10/26 03:06:26;;;;;;;;;;;;;;;21.10;56.33;100964.66;2099804;28;909;-58
2021/10/26 03:07:26;;;;;;;;;;;;;;;21.10;55.80;100959.28;2099932;28;811;-58
2021/10/26 03:08:26;;;;;;;;;;;;;;;21.10;56.27;100959.28;2100060;28;984;-58
2021/10/26 03:09:26;;;;;;;;;;;;;;;21.10;56.20;100952.09;2100065;28;1389;-58
2021/10/26 03:10:27;;;;;;;;;;;;;;;21.10;55.16;100956.59;2100072;28;1032;-58
2021/10/26 03:11:27;;;;;;;;;;;;;;;21.09;55.47;100944.94;2100113;28;1220;-58
2021/10/26 03:12:27;;;;;;;;;;;;;;;21.08;55.89;100935.09;2099625;28;901;-58
2021/10/26 03:13:28;;;;;;;;;;;;;;;21.09;55.77;100930.59;2100042;28;815;-58
2021/10/26 03:14:28;;;;;;;;;;;;;;;21.08;55.73;100927.03;2100041;28;890;-58
2021/10/26 03:15:29;;;;;;;;;;;;;;;21.10;56.14;100933.25;2100019;28;1012;-58
2021/10/26 03:16:30;;;;;;;;;;;;;;;21.11;55.34;100934.09;2100007;28;850;-59
2021/10/26 03:17:30;;;;;;;;;;;;;;;21.10;56.32;100927.84;2099888;28;791;-59
2021/10/26 03:18:30;;;;;;;;;;;;;;;21.09;56.03;100927.91;2099986;28;1175;-58
2021/10/26 03:19:30;;;;;;;;;;;;;;;21.10;56.29;100927.84;2099971;28;640;-58
2021/10/26 03:20:30;;;;;;;;;;;;;;;21.09;55.73;100926.09;2099602;28;752;-58
2021/10/26 03:21:32;;;;;;;;;;;;;;;21.08;55.76;100927.03;2099985;28;885;-58
2021/10/26 03:22:32;;;;;;;;;;;;;;;21.11;55.84;100923.34;2099946;28;1957;-58
2021/10/26 03:23:32;;;;;;;;;;;;;;;21.09;55.58;100915.31;2099751;28;1301;-58
2021/10/26 03:24:32;;;;;;;;;;;;;;;21.09;55.50;100919.81;2099878;28;1040;-58
2021/10/26 03:25:33;;;;;;;;;;;;;;;21.10;55.78;100925.16;2099947;28;763;-58
2021/10/26 03:26:33;;;;;;;;;;;;;;;21.08;56.15;100921.66;2099622;28;869;-58
2021/10/26 03:27:35;;;;;;;;;;;;;;;21.07;55.96;100914.50;2099891;28;912;-58
2021/10/26 03:28:35;;;;;;;;;;;;;;;21.09;55.86;100915.31;2099997;28;887;-58
2021/10/26 03:29:35;;;;;;;;;;;;;;;21.10;55.79;100910.81;2099894;28;854;-58
2021/10/26 03:30:36;;;;;;;;;;;;;;;21.10;55.64;100913.50;2099887;28;839;-58
2021/10/26 03:31:36;;;;;;;;;;;;;;;21.11;56.09;100923.34;2099962;28;846;-58
2021/10/26 03:32:37;;;;;;;;;;;;;;;21.11;55.44;100917.94;2099905;28;874;-58
2021/10/26 03:33:37;;;;;;;;;;;;;;;21.10;55.83;100919.78;2099761;28;818;-58
2021/10/26 03:34:37;;;;;;;;;;;;;;;21.09;55.84;100918.00;2099852;28;993;-58
2021/10/26 03:35:37;;;;;;;;;;;;;;;21.10;55.86;100917.09;2099829;28;974;-58
2021/10/26 03:36:37;;;;;;;;;;;;;;;21.06;56.28;100920.81;2099895;28;1023;-58
2021/10/26 03:37:38;;;;;;;;;;;;;;;21.07;56.53;100919.88;2094869;28;1450;-58
2021/10/26 03:38:40;;;;;;;;;;;;;;;21.11;56.46;100910.75;2091609;28;760;-58
2021/10/26 03:39:41;;;;;;;;;;;;;;;21.10;55.95;100906.31;2091381;28;791;-58
2021/10/26 03:40:41;;;;;;;;;;;;;;;21.10;55.97;100913.50;2091592;28;863;-58
2021/10/26 03:41:42;;;;;;;;;;;;;;;21.09;56.65;100915.31;2091394;28;1186;-58
2021/10/26 03:42:42;;;;;;;;;;;;;;;21.11;55.74;100913.47;2091505;28;1906;-58
2021/10/26 03:43:42;;;;;;;;;;;;;;;21.10;56.72;100917.09;2091506;28;712;-58
2021/10/26 03:44:43;;;;;;;;;;;;;;;21.09;55.81;100909.94;2091529;28;733;-58
2021/10/26 03:45:43;;;;;;;;;;;;;;;21.10;55.94;100910.81;2091571;28;791;-59
2021/10/26 03:46:43;;;;;;;;;;;;;;;21.11;55.15;100908.06;2091507;28;783;-58
2021/10/26 03:47:47;;;;;;;;;;;;;;;21.08;56.39;100909.97;2091307;28;796;-58
2021/10/26 03:48:47;;;;;;;;;;;;;;;21.09;56.24;100907.25;2091594;28;854;-58
2021/10/26 03:49:48;;;;;;;;;;;;;;;21.11;56.16;100901.78;2091382;28;886;-58
2021/10/26 03:50:48;;;;;;;;;;;;;;;21.09;56.82;100898.25;2091494;28;897;-58
2021/10/26 03:51:48;;;;;;;;;;;;;;;21.11;56.01;100894.59;2091481;28;973;-58
2021/10/26 03:52:48;;;;;;;;;;;;;;;21.10;55.45;100891.94;2091418;28;807;-58
2021/10/26 03:53:49;;;;;;;;;;;;;;;21.10;56.16;100889.25;2091523;28;984;-58
2021/10/26 03:54:50;;;;;;;;;;;;;;;21.10;56.30;100895.53;2091489;28;851;-58
2021/10/26 03:55:50;;;;;;;;;;;;;;;21.11;56.24;100889.22;2091038;28;1074;-58
2021/10/26 03:56:52;;;;;;;;;;;;;;;21.09;56.18;100883.00;2091521;28;783;-58
2021/10/26 03:57:52;;;;;;;;;;;;;;;21.10;55.69;100889.25;2091494;28;791;-58
2021/10/26 03:58:53;;;;;;;;;;;;;;;21.09;55.62;100887.50;2091239;28;818;-58
2021/10/26 03:59:53;;;;;;;;;;;;;;;21.09;55.61;100885.69;2091473;28;790;-58
2021/10/26 04:00:53;;;;;;;;;;;;;;;21.10;56.05;100882.06;2091477;28;1320;-58
2021/10/26 04:01:54;;;;;;;;;;;;;;;21.10;56.07;100884.75;2091407;28;855;-58
2021/10/26 04:02:55;;;;;;;;;;;;;;;21.10;55.64;100884.75;2091440;28;1971;-58
2021/10/26 04:03:55;;;;;;;;;;;;;;;21.35;55.63;100888.41;2091523;28;806;-58
2021/10/26 04:05:03;;;;;;;;;;;;;;;21.82;54.39;100882.19;2091464;28;1020;-58
2021/10/26 04:06:06;;;;;;;;;;;;;;;21.99;53.43;100887.84;2091451;28;839;-58
2021/10/26 04:07:09;;;;;;;;;;;;;;;22.09;53.83;100884.78;2091520;28;923;-59
2021/10/26 04:08:29;;;;;;;;;;;;;;;22.19;53.23;100880.78;2091415;28;881;-59
2021/10/26 04:09:48;;;;;;;;;;;;;;;22.25;53.05;100877.84;2091324;28;870;-59
2021/10/26 04:10:52;;;;;;;;;;;;;;;22.30;52.71;100883.94;2091437;28;901;-59
2021/10/26 04:12:16;;;;;;;;;;;;;;;22.34;52.35;100885.56;2091414;28;954;-59
2021/10/26 04:13:16;;;;;;;;;;;;;;;22.38;52.71;100883.63;2091337;28;1057;-59
2021/10/26 04:14:16;;;;;;;;;;;;;;;22.41;52.23;100879.91;2091396;28;878;-59
2021/10/26 04:15:16;;;;;;;;;;;;;;;22.42;52.95;100881.66;2091449;28;936;-59
2021/10/26 04:16:17;;;;;;;;;;;;;;;22.46;51.80;100883.34;2091226;28;985;-59
2021/10/26 04:17:19;;;;;;;;;;;;;;;22.50;52.20;100868.78;2091227;28;1000;-58
2021/10/26 04:18:19;;;;;;;;;;;;;;;22.51;52.77;100870.53;2091171;28;822;-57
2021/10/26 04:19:19;;;;;;;;;;;;;;;22.56;51.67;100868.53;2091378;28;1028;-57
2021/10/26 04:20:19;;;;;;;;;;;;;;;22.57;51.78;100872.13;2091291;28;752;-57
2021/10/26 04:21:20;;;;;;;;;;;;;;;22.59;51.71;100870.22;2091369;28;996;-58
2021/10/26 04:22:21;;;;;;;;;;;;;;;22.61;51.46;100871.06;2091329;28;783;-57
2021/10/26 04:23:21;;;;;;;;;;;;;;;22.57;52.35;100864.88;2091011;28;1979;-57
2021/10/26 04:24:21;;;;;;;;;;;;;;;22.63;51.85;100866.47;2091336;28;1333;-57
2021/10/26 04:25:21;;;;;;;;;;;;;;;22.64;51.59;100869.09;2091346;28;818;-56
2021/10/26 04:26:21;;;;;;;;;;;;;;;22.67;52.03;100867.19;2091084;28;1009;-56
2021/10/26 04:27:22;;;;;;;;;;;;;;;22.68;52.35;100863.56;2091370;28;760;-56
2021/10/26 04:28:22;;;;;;;;;;;;;;;22.66;51.57;100860.94;2091347;28;1110;-56
2021/10/26 04:29:23;;;;;;;;;;;;;;;22.70;51.83;100867.06;2091386;28;784;-56
2021/10/26 04:30:23;;;;;;;;;;;;;;;22.70;51.90;100859.84;2091329;28;946;-57
2021/10/26 04:31:23;;;;;;;;;;;;;;;22.72;52.11;100859.78;2091382;28;846;-59
2021/10/26 04:32:23;;;;;;;;;;;;;;;22.72;51.70;100859.78;2091259;28;791;-58
2021/10/26 04:33:23;;;;;;;;;;;;;;;22.72;51.89;100859.78;2091363;28;780;-58
2021/10/26 04:34:24;;;;;;;;;;;;;;;22.71;52.01;100860.72;2091249;28;1001;-58
2021/10/26 04:35:24;;;;;;;;;;;;;;;22.73;51.99;100858.84;2091341;28;1411;-58
2021/10/26 04:36:24;;;;;;;;;;;;;;;22.73;51.59;100859.72;2091327;28;1141;-59
2021/10/26 04:37:24;;;;;;;;;;;;;;;22.76;51.76;100861.41;2090930;28;1462;-58
2021/10/26 04:38:24;;;;;;;;;;;;;;;22.78;51.49;100863.09;2091352;28;772;-59
2021/10/26 04:39:25;;;;;;;;;;;;;;;22.77;51.95;100861.34;2091312;28;879;-58
2021/10/26 04:40:25;;;;;;;;;;;;;;;22.73;52.14;100857.00;2091306;28;1033;-58
2021/10/26 04:41:26;;;;;;;;;;;;;;;22.75;52.19;100855.13;2091383;28;778;-59
2021/10/26 04:42:27;;;;;;;;;;;;;;;22.74;52.10;100852.50;2091019;28;849;-59
2021/10/26 04:43:27;;;;;;;;;;;;;;;22.77;51.42;100855.94;2091270;28;1890;-59
2021/10/26 04:44:28;;;;;;;;;;;;;;;22.77;51.41;100857.78;2091318;28;838;-58
2021/10/26 04:45:28;;;;;;;;;;;;;;;22.77;51.61;100850.53;2090623;28;949;-59
2021/10/26 04:46:32;;;;;;;;;;;;;;;22.80;51.46;100850.41;2090819;28;815;-59
2021/10/26 04:47:32;;;;;;;;;;;;;;;22.82;51.78;100853.06;2091205;28;1512;-59
2021/10/26 04:48:32;;;;;;;;;;;;;;;22.82;52.30;100846.75;2091255;28;988;-59
2021/10/26 04:49:33;;;;;;;;;;;;;;;22.80;51.64;100850.41;2091273;28;984;-59
2021/10/26 04:50:33;;;;;;;;;;;;;;;22.82;51.99;100850.34;2091004;28;827;-58
2021/10/26 04:51:33;;;;;;;;;;;;;;;22.84;51.95;100842.19;2091218;28;1016;-58
2021/10/26 04:52:33;;;;;;;;;;;;;;;22.83;51.38;100846.72;2091235;28;1217;-59
2021/10/26 04:53:33;;;;;;;;;;;;;;;22.84;51.85;100843.06;2091329;28;895;-59
2021/10/26 04:54:33;;;;;;;;;;;;;;;22.84;51.75;100843.06;2091298;28;814;-58
2021/10/26 04:55:34;;;;;;;;;;;;;;;22.84;51.59;100840.38;2091243;28;798;-59
2021/10/26 04:56:35;;;;;;;;;;;;;;;22.85;51.84;100842.13;2091133;28;1216;-59
2021/10/26 04:57:35;;;;;;;;;;;;;;;22.87;51.69;100832.13;2091220;28;799;-59
2021/10/26 04:58:35;;;;;;;;;;;;;;;22.85;50.78;100839.44;2091200;28;970;-59
2021/10/26 04:59:35;;;;;;;;;;;;;;;22.86;51.44;100840.28;2091294;28;755;-58
2021/10/26 05:00:36;;;;;;;;;;;;;;;22.84;52.24;100836.78;2091185;28;909;-58
2021/10/26 05:01:36;;;;;;;;;;;;;;;22.87;51.43;100832.13;2091230;28;890;-58
2021/10/26 05:02:36;;;;;;;;;;;;;;;22.90;51.03;100829.31;2091147;28;1922;-59
2021/10/26 05:03:37;;;;;;;;;;;;;;;22.89;51.80;100826.66;2090914;28;814;-59
2021/10/26 05:04:37;;;;;;;;;;;;;;;22.89;51.51;100832.94;2091222;28;834;-58
2021/10/26 05:05:37;;;;;;;;;;;;;;;22.91;51.41;100828.34;2091247;28;826;-59
2021/10/26 05:06:38;;;;;;;;;;;;;;;22.90;51.18;100818.50;2091117;28;879;-59
2021/10/26 05:07:38;;;;;;;;;;;;;;;22.91;52.11;100825.66;2091256;28;1106;-59
2021/10/26 05:08:38;;;;;;;;;;;;;;;22.93;51.22;100823.78;2091126;28;780;-59
2021/10/26 05:09:38;;;;;;;;;;;;;;;22.93;51.23;100820.16;2091201;28;1048;-59
2021/10/26 05:10:38;;;;;;;;;;;;;;;22.91;52.09;100822.06;2091177;28;1278;-59
2021/10/26 05:11:38;;;;;;;;;;;;;;;22.92;52.13;100827.41;2091017;28;966;-58
2021/10/26 05:12:39;;;;;;;;;;;;;;;22.93;51.64;100833.69;2091153;28;702;-59
2021/10/26 05:13:39;;;;;;;;;;;;;;;22.92;51.82;100827.41;2091146;28;1271;-59
2021/10/26 05:14:39;;;;;;;;;;;;;;;22.97;51.48;100829.00;2090729;28;977;-58
2021/10/26 05:15:39;;;;;;;;;;;;;;;22.94;52.07;100830.94;2091243;28;829;-59
2021/10/26 05:16:43;;;;;;;;;;;;;;;22.94;51.72;100833.63;2091243;28;846;-59
2021/10/26 05:17:43;;;;;;;;;;;;;;;22.94;52.30;100830.03;2091192;28;806;-59
2021/10/26 05:18:47;;;;;;;;;;;;;;;22.94;51.72;100820.13;2091202;28;846;-59
2021/10/26 05:19:50;;;;;;;;;;;;;;;22.95;51.48;100834.50;2091138;28;824;-59
2021/10/26 05:20:53;;;;;;;;;;;;;;;22.97;51.96;100829.00;2091235;28;764;-59